Station Historical Data
Daily Summary for April 18, 2017 Units:  Both    English   Metric
« Previous Day
Next Day »
Daily Weekly Monthly Yearly Custom
  High: Low: Average:
Temperature: 80.6 °F /  27 °C 60.7 °F /  15.9 °C 68.2 °F /  20.1 °C
Dew Point: 64.1 °F /  17.8 °C 57.7 °F /  14.3 °C 60.4 °F /  15.8 °C
Humidity: 90% 52% 77%
Wind Speed: 2.0mph /  3.2km/h - 0.2mph /  0.3km/h
Wind Gust: 5.0mph /  8km/h - -
Wind- - West
Pressure: 30.25 in /  1024.3 hPa 30.09 in /  1018.8 hPa -
Precipitation: 0.00 in /  0 mm    
Historical Graphs
 
 
Tabular Data for April 18, 2017
Time Temperature Dew Point Pressure Wind Wind Speed Wind Gust Humidity Rainfall Rate (Hourly) Conditions
00:00 65.2 °F /  18.4 °C 61.2 °F /  16.2 °C 30.11in /  1019.5hPa Calm     87% 0.00in /  0mm SCT
00:15 65.6 °F /  18.7 °C 61.3 °F /  16.3 °C 30.12in /  1019.9hPa Calm   1.0mph /  1.6km/h 86% 0.00in /  0mm SCT
00:30 65.5 °F /  18.6 °C 60.9 °F /  16.1 °C 30.11in /  1019.5hPa Calm   1.0mph /  1.6km/h 85% 0.00in /  0mm SCT
00:45 65.4 °F /  18.6 °C 60.8 °F /  16 °C 30.11in /  1019.5hPa Calm     85% 0.00in /  0mm SCT
01:00 65.1 °F /  18.4 °C 60.5 °F /  15.8 °C 30.11in /  1019.5hPa Calm     85% 0.00in /  0mm SCT
01:15 64.8 °F /  18.2 °C 60.2 °F /  15.7 °C 30.12in /  1019.9hPa Calm     85% 0.00in /  0mm SCT
01:30 64.6 °F /  18.1 °C 60.3 °F /  15.7 °C 30.11in /  1019.5hPa Calm     86% 0.00in /  0mm SCT
01:45 64.4 °F /  18 °C 60.1 °F /  15.6 °C 30.11in /  1019.5hPa Calm     86% 0.00in /  0mm SCT
02:00 63.9 °F /  17.7 °C 59.7 °F /  15.4 °C 30.11in /  1019.5hPa Calm     86% 0.00in /  0mm SCT
02:15 63.4 °F /  17.4 °C 59.1 °F /  15.1 °C 30.11in /  1019.5hPa Calm   1.0mph /  1.6km/h 86% 0.00in /  0mm SCT
02:30 62.9 °F /  17.2 °C 59.0 °F /  15 °C 30.10in /  1019.2hPa Calm     87% 0.00in /  0mm SCT
02:45 62.5 °F /  16.9 °C 58.6 °F /  14.8 °C 30.10in /  1019.2hPa Calm     87% 0.00in /  0mm SCT
03:00 62.2 °F /  16.8 °C 58.6 °F /  14.8 °C 30.09in /  1018.8hPa Calm     88% 0.00in /  0mm SCT
03:15 61.8 °F /  16.6 °C 58.2 °F /  14.6 °C 30.09in /  1018.8hPa Calm     88% 0.00in /  0mm SCT
03:30 61.5 °F /  16.4 °C 57.9 °F /  14.4 °C 30.09in /  1018.8hPa Calm     88% 0.00in /  0mm SCT
03:45 60.7 °F /  15.9 °C 57.7 °F /  14.3 °C 30.09in /  1018.8hPa Calm     90% 0.00in /  0mm SCT
04:00 60.7 °F /  15.9 °C 57.7 °F /  14.3 °C 30.10in /  1019.2hPa Calm     90% 0.00in /  0mm SCT
04:15 60.7 °F /  15.9 °C 57.7 °F /  14.3 °C 30.10in /  1019.2hPa Calm     90% 0.00in /  0mm SCT
04:30 60.7 °F /  15.9 °C 57.7 °F /  14.3 °C 30.10in /  1019.2hPa Calm     90% 0.00in /  0mm SCT
04:45 60.7 °F /  15.9 °C 57.7 °F /  14.3 °C 30.11in /  1019.5hPa Calm     90% 0.00in /  0mm SCT
05:00 60.7 °F /  15.9 °C 57.7 °F /  14.3 °C 30.12in /  1019.9hPa Calm     90% 0.00in /  0mm SCT
05:15 60.7 °F /  15.9 °C 57.7 °F /  14.3 °C 30.12in /  1019.9hPa Calm     90% 0.00in /  0mm SCT
05:30 60.7 °F /  15.9 °C 57.7 °F /  14.3 °C 30.12in /  1019.9hPa Calm     90% 0.00in /  0mm SCT
05:45 60.7 °F /  15.9 °C 57.7 °F /  14.3 °C 30.12in /  1019.9hPa Calm     90% 0.00in /  0mm SCT
06:00 60.7 °F /  15.9 °C 57.7 °F /  14.3 °C 30.12in /  1019.9hPa Calm     90% 0.00in /  0mm SCT
06:15 60.7 °F /  15.9 °C 57.7 °F /  14.3 °C 30.12in /  1019.9hPa Calm     90% 0.00in /  0mm SCT
06:30 60.7 °F /  15.9 °C 57.7 °F /  14.3 °C 30.13in /  1020.2hPa Calm     90% 0.00in /  0mm SCT
06:45 60.7 °F /  15.9 °C 57.7 °F /  14.3 °C 30.13in /  1020.2hPa Calm     90% 0.00in /  0mm SCT
07:00 60.7 °F /  15.9 °C 57.7 °F /  14.3 °C 30.14in /  1020.5hPa Calm     90% 0.00in /  0mm SCT
07:15 60.7 °F /  15.9 °C 57.7 °F /  14.3 °C 30.14in /  1020.5hPa Calm     90% 0.00in /  0mm SCT
07:30 60.7 °F /  15.9 °C 57.7 °F /  14.3 °C 30.15in /  1020.9hPa Calm     90% 0.00in /  0mm SCT
07:45 60.7 °F /  15.9 °C 57.7 °F /  14.3 °C 30.16in /  1021.2hPa Calm     90% 0.00in /  0mm SCT
08:00 60.7 °F /  15.9 °C 57.7 °F /  14.3 °C 30.17in /  1021.6hPa Calm     90% 0.00in /  0mm SCT
08:15 60.7 °F /  15.9 °C 57.7 °F /  14.3 °C 30.17in /  1021.6hPa Calm     90% 0.00in /  0mm SCT
08:30 60.7 °F /  15.9 °C 57.7 °F /  14.3 °C 30.17in /  1021.6hPa Calm     90% 0.00in /  0mm SCT
08:45 63.0 °F /  17.2 °C 59.7 °F /  15.4 °C 30.18in /  1021.9hPa Calm     89% 0.00in /  0mm SCT
09:00 63.8 °F /  17.7 °C 59.8 °F /  15.4 °C 30.18in /  1021.9hPa Calm     87% 0.00in /  0mm SCT
09:15 64.8 °F /  18.2 °C 60.8 °F /  16 °C 30.18in /  1021.9hPa Calm     87% 0.00in /  0mm SCT
09:30 65.5 °F /  18.6 °C 60.9 °F /  16.1 °C 30.18in /  1021.9hPa Calm     85% 0.00in /  0mm SCT
09:45 66.6 °F /  19.2 °C 61.2 °F /  16.2 °C 30.19in /  1022.2hPa Calm     83% 0.00in /  0mm SCT
10:15 71.0 °F /  21.7 °C 61.9 °F /  16.6 °C 30.18in /  1021.9hPa Calm   1.0mph /  1.6km/h 73% 0.00in /  0mm SCT
10:30 70.7 °F /  21.5 °C 61.2 °F /  16.2 °C 30.19in /  1022.2hPa Calm   3.0mph /  4.8km/h 72% 0.00in /  0mm SCT
10:45 71.0 °F /  21.7 °C 61.5 °F /  16.4 °C 30.19in /  1022.2hPa Calm   3.0mph /  4.8km/h 72% 0.00in /  0mm SCT
11:00 72.3 °F /  22.4 °C 61.6 °F /  16.4 °C 30.19in /  1022.2hPa WNW 1.0mph /  1.6km/h 3.0mph /  4.8km/h 69% 0.00in /  0mm SCT
11:15 74.3 °F /  23.5 °C 62.6 °F /  17 °C 30.19in /  1022.2hPa Calm   1.0mph /  1.6km/h 67% 0.00in /  0mm SCT
11:30 75.9 °F /  24.4 °C 62.9 °F /  17.2 °C 30.19in /  1022.2hPa Calm   2.0mph /  3.2km/h 64% 0.00in /  0mm SCT
11:45 76.3 °F /  24.6 °C 62.3 °F /  16.8 °C 30.20in /  1022.6hPa Calm   3.0mph /  4.8km/h 62% 0.00in /  0mm SCT
12:00 77.1 °F /  25.1 °C 62.6 °F /  17 °C 30.19in /  1022.2hPa Calm   3.0mph /  4.8km/h 61% 0.00in /  0mm SCT
12:15 78.5 °F /  25.8 °C 62.5 °F /  16.9 °C 30.19in /  1022.2hPa Calm   3.0mph /  4.8km/h 58% 0.00in /  0mm SCT
12:30 79.2 °F /  26.2 °C 62.1 °F /  16.7 °C 30.19in /  1022.2hPa Calm   3.0mph /  4.8km/h 56% 0.00in /  0mm SCT
12:45 79.7 °F /  26.5 °C 63.1 °F /  17.3 °C 30.19in /  1022.2hPa NE 1.0mph /  1.6km/h 3.0mph /  4.8km/h 57% 0.00in /  0mm SCT
13:00 80.6 °F /  27 °C 61.3 °F /  16.3 °C 30.18in /  1021.9hPa Calm   2.0mph /  3.2km/h 52% 0.00in /  0mm SCT
13:15 78.1 °F /  25.6 °C 60.6 °F /  15.9 °C 30.18in /  1021.9hPa Calm     55% 0.00in /  0mm SCT
13:30 76.7 °F /  24.8 °C 61.8 °F /  16.6 °C 30.18in /  1021.9hPa Calm     60% 0.00in /  0mm SCT
13:45 75.0 °F /  23.9 °C 61.1 °F /  16.2 °C 30.18in /  1021.9hPa Calm     62% 0.00in /  0mm SCT
14:00 74.0 °F /  23.3 °C 63.6 °F /  17.6 °C 30.17in /  1021.6hPa Calm     70% 0.00in /  0mm SCT
14:15 73.7 °F /  23.2 °C 62.9 °F /  17.2 °C 30.17in /  1021.6hPa Calm   1.0mph /  1.6km/h 69% 0.00in /  0mm SCT
14:30 73.1 °F /  22.8 °C 62.3 °F /  16.8 °C 30.17in /  1021.6hPa Calm   2.0mph /  3.2km/h 69% 0.00in /  0mm SCT
14:45 74.1 °F /  23.4 °C 64.1 °F /  17.8 °C 30.16in /  1021.2hPa Calm   1.0mph /  1.6km/h 71% 0.00in /  0mm SCT
15:00 74.9 °F /  23.8 °C 62.8 °F /  17.1 °C 30.16in /  1021.2hPa Calm   2.0mph /  3.2km/h 66% 0.00in /  0mm SCT
15:15 74.9 °F /  23.8 °C 62.4 °F /  16.9 °C 30.16in /  1021.2hPa WNW 2.0mph /  3.2km/h 5.0mph /  8km/h 65% 0.00in /  0mm SCT
15:30 74.4 °F /  23.6 °C 62.3 °F /  16.8 °C 30.16in /  1021.2hPa Calm   2.0mph /  3.2km/h 66% 0.00in /  0mm SCT
15:45 73.9 °F /  23.3 °C 62.7 °F /  17.1 °C 30.15in /  1020.9hPa Calm   3.0mph /  4.8km/h 68% 0.00in /  0mm SCT
16:00 75.9 °F /  24.4 °C 62.8 °F /  17.1 °C 30.15in /  1020.9hPa Calm   3.0mph /  4.8km/h 64% 0.00in /  0mm SCT
16:15 76.1 °F /  24.5 °C 62.6 °F /  17 °C 30.14in /  1020.5hPa Calm   3.0mph /  4.8km/h 63% 0.00in /  0mm SCT
16:30 75.7 °F /  24.3 °C 62.6 °F /  17 °C 30.14in /  1020.5hPa West 1.0mph /  1.6km/h 5.0mph /  8km/h 64% 0.00in /  0mm SCT
16:45 75.9 °F /  24.4 °C 63.3 °F /  17.4 °C 30.13in /  1020.2hPa Calm   3.0mph /  4.8km/h 65% 0.00in /  0mm SCT
17:00 75.3 °F /  24.1 °C 62.7 °F /  17.1 °C 30.12in /  1019.9hPa West 1.0mph /  1.6km/h 5.0mph /  8km/h 65% 0.00in /  0mm SCT
17:15 75.0 °F /  23.9 °C 62.8 °F /  17.1 °C 30.13in /  1020.2hPa West 1.0mph /  1.6km/h 5.0mph /  8km/h 66% 0.00in /  0mm SCT
17:30 74.8 °F /  23.8 °C 61.8 °F /  16.6 °C 30.13in /  1020.2hPa WNW 1.0mph /  1.6km/h 3.0mph /  4.8km/h 64% 0.00in /  0mm SCT
17:45 74.4 °F /  23.6 °C 62.3 °F /  16.8 °C 30.13in /  1020.2hPa Calm   1.0mph /  1.6km/h 66% 0.00in /  0mm SCT
18:00 74.1 °F /  23.4 °C 62.9 °F /  17.2 °C 30.13in /  1020.2hPa Calm   2.0mph /  3.2km/h 68% 0.00in /  0mm SCT
18:15 73.7 °F /  23.2 °C 62.5 °F /  16.9 °C 30.14in /  1020.5hPa Calm   2.0mph /  3.2km/h 68% 0.00in /  0mm SCT
18:30 73.4 °F /  23 °C 62.6 °F /  17 °C 30.14in /  1020.5hPa Calm   5.0mph /  8km/h 69% 0.00in /  0mm SCT
18:45 73.2 °F /  22.9 °C 62.0 °F /  16.7 °C 30.15in /  1020.9hPa Calm   2.0mph /  3.2km/h 68% 0.00in /  0mm SCT
19:00 72.6 °F /  22.6 °C 61.8 °F /  16.6 °C 30.15in /  1020.9hPa West 1.0mph /  1.6km/h 2.0mph /  3.2km/h 69% 0.00in /  0mm SCT
19:15 72.2 °F /  22.3 °C 62.3 °F /  16.8 °C 30.16in /  1021.2hPa Calm   5.0mph /  8km/h 71% 0.00in /  0mm SCT
19:30 71.9 °F /  22.2 °C 62.4 °F /  16.9 °C 30.17in /  1021.6hPa Calm   3.0mph /  4.8km/h 72% 0.00in /  0mm SCT
19:45 71.2 °F /  21.8 °C 61.7 °F /  16.5 °C 30.17in /  1021.6hPa WNW 1.0mph /  1.6km/h 5.0mph /  8km/h 72% 0.00in /  0mm SCT
20:00 70.2 °F /  21.2 °C 61.1 °F /  16.2 °C 30.17in /  1021.6hPa West 1.0mph /  1.6km/h 5.0mph /  8km/h 73% 0.00in /  0mm SCT
20:15 69.2 °F /  20.7 °C 60.6 °F /  15.9 °C 30.18in /  1021.9hPa Calm   3.0mph /  4.8km/h 74% 0.00in /  0mm SCT
20:30 68.6 °F /  20.3 °C 60.4 °F /  15.8 °C 30.18in /  1021.9hPa Calm   2.0mph /  3.2km/h 75% 0.00in /  0mm SCT
20:45 68.2 °F /  20.1 °C 60.0 °F /  15.6 °C 30.18in /  1021.9hPa WNW 2.0mph /  3.2km/h 3.0mph /  4.8km/h 75% 0.00in /  0mm SCT
21:00 67.9 °F /  19.9 °C 60.0 °F /  15.6 °C 30.19in /  1022.2hPa Calm   1.0mph /  1.6km/h 76% 0.00in /  0mm SCT
21:15 67.5 °F /  19.7 °C 59.7 °F /  15.4 °C 30.19in /  1022.2hPa WNW 1.0mph /  1.6km/h 3.0mph /  4.8km/h 76% 0.00in /  0mm SCT
21:30 67.1 °F /  19.5 °C 59.3 °F /  15.2 °C 30.20in /  1022.6hPa Calm   3.0mph /  4.8km/h 76% 0.00in /  0mm SCT
21:45 66.8 °F /  19.3 °C 59.4 °F /  15.2 °C 30.20in /  1022.6hPa Calm   5.0mph /  8km/h 77% 0.00in /  0mm SCT
22:00 66.6 °F /  19.2 °C 59.5 °F /  15.3 °C 30.21in /  1022.9hPa Calm   1.0mph /  1.6km/h 78% 0.00in /  0mm SCT
22:15 66.5 °F /  19.2 °C 59.5 °F /  15.3 °C 30.22in /  1023.2hPa Calm   3.0mph /  4.8km/h 78% 0.00in /  0mm SCT
22:30 66.3 °F /  19.1 °C 59.2 °F /  15.1 °C 30.23in /  1023.6hPa West 1.0mph /  1.6km/h 2.0mph /  3.2km/h 78% 0.00in /  0mm SCT
22:45 66.0 °F /  18.9 °C 58.6 °F /  14.8 °C 30.23in /  1023.6hPa West 1.0mph /  1.6km/h 2.0mph /  3.2km/h 77% 0.00in /  0mm SCT
23:00 65.6 °F /  18.7 °C 58.6 °F /  14.8 °C 30.24in /  1023.9hPa WNW 1.0mph /  1.6km/h 2.0mph /  3.2km/h 78% 0.00in /  0mm SCT
23:15 65.4 °F /  18.6 °C 58.4 °F /  14.7 °C 30.24in /  1023.9hPa WNW 1.0mph /  1.6km/h 3.0mph /  4.8km/h 78% 0.00in /  0mm SCT
23:30 65.2 °F /  18.4 °C 58.5 °F /  14.7 °C 30.25in /  1024.3hPa Calm   2.0mph /  3.2km/h 79% 0.00in /  0mm SCT
23:45 65.0 °F /  18.3 °C 58.7 °F /  14.8 °C 30.25in /  1024.3hPa West 1.0mph /  1.6km/h 5.0mph /  8km/h 80% 0.00in /  0mm SCT
Piedmont Bend
Compliments of Weather Underground - 2 mb